sensor_id;sensor_type;location;lat;lon;timestamp;temperature;humidity
74560;DHT22;63032;54.340;10.138;2022-08-21T00:02:16;18.20;69.40
74560;DHT22;63032;54.340;10.138;2022-08-21T00:04:43;18.20;69.50
74560;DHT22;63032;54.340;10.138;2022-08-21T00:07:12;18.10;69.40
74560;DHT22;63032;54.340;10.138;2022-08-21T00:09:38;18.00;69.80
74560;DHT22;63032;54.340;10.138;2022-08-21T00:12:05;18.00;69.90
74560;DHT22;63032;54.340;10.138;2022-08-21T00:14:31;17.90;70.20
74560;DHT22;63032;54.340;10.138;2022-08-21T00:16:57;17.90;70.50
74560;DHT22;63032;54.340;10.138;2022-08-21T00:19:26;17.90;70.60
74560;DHT22;63032;54.340;10.138;2022-08-21T00:21:53;17.80;70.60
74560;DHT22;63032;54.340;10.138;2022-08-21T00:24:21;17.80;70.70
74560;DHT22;63032;54.340;10.138;2022-08-21T00:26:47;17.90;70.60
74560;DHT22;63032;54.340;10.138;2022-08-21T00:29:13;17.90;70.40
74560;DHT22;63032;54.340;10.138;2022-08-21T00:31:40;18.00;70.40
74560;DHT22;63032;54.340;10.138;2022-08-21T00:34:06;17.90;70.40
74560;DHT22;63032;54.340;10.138;2022-08-21T00:36:33;17.90;70.30
74560;DHT22;63032;54.340;10.138;2022-08-21T00:38:59;17.90;70.20
74560;DHT22;63032;54.340;10.138;2022-08-21T00:41:24;18.10;69.90
74560;DHT22;63032;54.340;10.138;2022-08-21T00:43:52;18.10;69.60
74560;DHT22;63032;54.340;10.138;2022-08-21T00:46:19;18.20;69.30
74560;DHT22;63032;54.340;10.138;2022-08-21T00:48:44;18.20;69.30
74560;DHT22;63032;54.340;10.138;2022-08-21T00:51:15;18.20;69.40
74560;DHT22;63032;54.340;10.138;2022-08-21T00:53:45;18.10;69.60
74560;DHT22;63032;54.340;10.138;2022-08-21T00:56:11;18.00;69.30
74560;DHT22;63032;54.340;10.138;2022-08-21T00:58:41;18.00;69.60
74560;DHT22;63032;54.340;10.138;2022-08-21T01:01:08;17.90;69.70
74560;DHT22;63032;54.340;10.138;2022-08-21T01:03:35;17.80;69.80
74560;DHT22;63032;54.340;10.138;2022-08-21T01:06:01;17.80;70.00
74560;DHT22;63032;54.340;10.138;2022-08-21T01:08:28;17.70;70.10
74560;DHT22;63032;54.340;10.138;2022-08-21T01:10:55;17.70;70.10
74560;DHT22;63032;54.340;10.138;2022-08-21T01:13:25;17.60;70.50
74560;DHT22;63032;54.340;10.138;2022-08-21T01:15:54;17.60;70.30
74560;DHT22;63032;54.340;10.138;2022-08-21T01:18:20;17.60;70.30
74560;DHT22;63032;54.340;10.138;2022-08-21T01:21:07;17.50;70.80
74560;DHT22;63032;54.340;10.138;2022-08-21T01:23:35;17.60;70.60
74560;DHT22;63032;54.340;10.138;2022-08-21T01:26:05;17.50;70.80
74560;DHT22;63032;54.340;10.138;2022-08-21T01:28:36;17.60;70.80
74560;DHT22;63032;54.340;10.138;2022-08-21T01:31:06;17.50;70.90
74560;DHT22;63032;54.340;10.138;2022-08-21T01:33:32;17.40;71.00
74560;DHT22;63032;54.340;10.138;2022-08-21T01:35:58;17.50;70.90
74560;DHT22;63032;54.340;10.138;2022-08-21T01:38:24;17.50;71.00
74560;DHT22;63032;54.340;10.138;2022-08-21T01:40:50;17.50;71.00
74560;DHT22;63032;54.340;10.138;2022-08-21T01:43:16;17.40;71.30
74560;DHT22;63032;54.340;10.138;2022-08-21T01:45:42;17.40;71.50
74560;DHT22;63032;54.340;10.138;2022-08-21T01:48:07;17.30;71.60
74560;DHT22;63032;54.340;10.138;2022-08-21T01:50:37;17.30;71.60
74560;DHT22;63032;54.340;10.138;2022-08-21T01:53:03;17.20;71.90
74560;DHT22;63032;54.340;10.138;2022-08-21T01:55:28;17.20;72.20
74560;DHT22;63032;54.340;10.138;2022-08-21T01:57:54;17.10;72.30
74560;DHT22;63032;54.340;10.138;2022-08-21T02:00:22;17.10;72.40
74560;DHT22;63032;54.340;10.138;2022-08-21T02:02:48;17.20;72.20
74560;DHT22;63032;54.340;10.138;2022-08-21T02:05:15;17.10;72.20
74560;DHT22;63032;54.340;10.138;2022-08-21T02:07:47;17.10;72.10
74560;DHT22;63032;54.340;10.138;2022-08-21T02:10:16;17.20;71.90
74560;DHT22;63032;54.340;10.138;2022-08-21T02:12:42;17.10;72.40
74560;DHT22;63032;54.340;10.138;2022-08-21T02:15:09;17.10;72.60
74560;DHT22;63032;54.340;10.138;2022-08-21T02:17:44;17.10;72.80
74560;DHT22;63032;54.340;10.138;2022-08-21T02:20:43;17.00;72.90
74560;DHT22;63032;54.340;10.138;2022-08-21T02:23:03;17.00;72.80
74560;DHT22;63032;54.340;10.138;2022-08-21T02:25:29;16.90;73.10
74560;DHT22;63032;54.340;10.138;2022-08-21T02:27:56;16.90;73.10
74560;DHT22;63032;54.340;10.138;2022-08-21T02:30:28;16.90;73.30
74560;DHT22;63032;54.340;10.138;2022-08-21T02:32:54;16.90;73.20
74560;DHT22;63032;54.340;10.138;2022-08-21T02:35:21;16.90;73.00
74560;DHT22;63032;54.340;10.138;2022-08-21T02:37:52;16.90;73.00
74560;DHT22;63032;54.340;10.138;2022-08-21T02:40:24;16.90;73.10
74560;DHT22;63032;54.340;10.138;2022-08-21T02:42:50;16.90;72.80
74560;DHT22;63032;54.340;10.138;2022-08-21T02:45:16;16.80;72.90
74560;DHT22;63032;54.340;10.138;2022-08-21T02:47:53;16.80;72.90
74560;DHT22;63032;54.340;10.138;2022-08-21T02:50:23;16.80;73.10
74560;DHT22;63032;54.340;10.138;2022-08-21T02:52:49;16.80;72.90
74560;DHT22;63032;54.340;10.138;2022-08-21T02:55:15;16.80;72.90
74560;DHT22;63032;54.340;10.138;2022-08-21T02:57:44;16.70;73.00
74560;DHT22;63032;54.340;10.138;2022-08-21T03:00:11;16.70;73.30
74560;DHT22;63032;54.340;10.138;2022-08-21T03:02:38;16.70;73.20
74560;DHT22;63032;54.340;10.138;2022-08-21T03:05:05;16.70;73.30
74560;DHT22;63032;54.340;10.138;2022-08-21T03:07:31;16.70;73.50
74560;DHT22;63032;54.340;10.138;2022-08-21T03:09:57;16.60;73.60
74560;DHT22;63032;54.340;10.138;2022-08-21T03:12:23;16.70;73.80
74560;DHT22;63032;54.340;10.138;2022-08-21T03:14:49;16.60;74.00
74560;DHT22;63032;54.340;10.138;2022-08-21T03:17:15;16.50;74.00
74560;DHT22;63032;54.340;10.138;2022-08-21T03:19:40;16.60;73.80
74560;DHT22;63032;54.340;10.138;2022-08-21T03:22:06;16.60;73.60
74560;DHT22;63032;54.340;10.138;2022-08-21T03:24:32;16.70;73.40
74560;DHT22;63032;54.340;10.138;2022-08-21T03:26:57;16.70;73.30
74560;DHT22;63032;54.340;10.138;2022-08-21T03:29:26;16.70;73.00
74560;DHT22;63032;54.340;10.138;2022-08-21T03:31:52;16.70;73.20
74560;DHT22;63032;54.340;10.138;2022-08-21T03:34:20;16.70;73.20
74560;DHT22;63032;54.340;10.138;2022-08-21T03:36:47;16.70;73.50
74560;DHT22;63032;54.340;10.138;2022-08-21T03:39:17;16.60;73.60
74560;DHT22;63032;54.340;10.138;2022-08-21T03:41:43;16.60;74.50
74560;DHT22;63032;54.340;10.138;2022-08-21T03:44:08;16.50;73.70
74560;DHT22;63032;54.340;10.138;2022-08-21T03:46:34;16.50;74.50
74560;DHT22;63032;54.340;10.138;2022-08-21T03:49:00;16.40;73.90
74560;DHT22;63032;54.340;10.138;2022-08-21T03:51:26;16.40;74.20
74560;DHT22;63032;54.340;10.138;2022-08-21T03:53:52;16.40;74.20
74560;DHT22;63032;54.340;10.138;2022-08-21T03:56:20;16.50;73.90
74560;DHT22;63032;54.340;10.138;2022-08-21T03:58:46;16.50;73.80
74560;DHT22;63032;54.340;10.138;2022-08-21T04:01:11;16.40;73.90
74560;DHT22;63032;54.340;10.138;2022-08-21T04:03:38;16.40;74.00
74560;DHT22;63032;54.340;10.138;2022-08-21T04:06:04;16.40;74.40
74560;DHT22;63032;54.340;10.138;2022-08-21T04:08:30;16.30;74.40
74560;DHT22;63032;54.340;10.138;2022-08-21T04:10:57;16.30;74.50
74560;DHT22;63032;54.340;10.138;2022-08-21T04:13:24;16.40;74.50
74560;DHT22;63032;54.340;10.138;2022-08-21T04:15:50;16.40;74.50
74560;DHT22;63032;54.340;10.138;2022-08-21T04:18:16;16.40;74.50
74560;DHT22;63032;54.340;10.138;2022-08-21T04:20:43;16.40;74.50
74560;DHT22;63032;54.340;10.138;2022-08-21T04:23:10;16.40;74.20
74560;DHT22;63032;54.340;10.138;2022-08-21T04:25:35;16.40;74.40
74560;DHT22;63032;54.340;10.138;2022-08-21T04:28:02;16.40;74.50
74560;DHT22;63032;54.340;10.138;2022-08-21T04:30:28;16.40;74.30
74560;DHT22;63032;54.340;10.138;2022-08-21T04:32:54;16.40;74.10
74560;DHT22;63032;54.340;10.138;2022-08-21T04:35:22;16.40;74.40
74560;DHT22;63032;54.340;10.138;2022-08-21T04:37:48;16.50;74.00
74560;DHT22;63032;54.340;10.138;2022-08-21T04:40:16;16.50;73.70
74560;DHT22;63032;54.340;10.138;2022-08-21T04:42:50;16.50;73.80
74560;DHT22;63032;54.340;10.138;2022-08-21T04:45:25;16.60;73.40
74560;DHT22;63032;54.340;10.138;2022-08-21T04:47:57;16.60;73.90
74560;DHT22;63032;54.340;10.138;2022-08-21T04:50:30;16.60;73.20
74560;DHT22;63032;54.340;10.138;2022-08-21T04:52:57;16.50;73.40
74560;DHT22;63032;54.340;10.138;2022-08-21T04:55:24;16.60;73.40
74560;DHT22;63032;54.340;10.138;2022-08-21T04:57:51;16.60;73.50
74560;DHT22;63032;54.340;10.138;2022-08-21T05:00:19;16.60;73.40
74560;DHT22;63032;54.340;10.138;2022-08-21T05:02:48;16.60;73.40
74560;DHT22;63032;54.340;10.138;2022-08-21T05:05:15;16.60;73.10
74560;DHT22;63032;54.340;10.138;2022-08-21T05:07:42;16.70;73.00
74560;DHT22;63032;54.340;10.138;2022-08-21T05:10:09;16.70;72.90
74560;DHT22;63032;54.340;10.138;2022-08-21T05:12:35;16.70;72.80
74560;DHT22;63032;54.340;10.138;2022-08-21T05:15:02;16.70;72.80
74560;DHT22;63032;54.340;10.138;2022-08-21T05:17:31;16.70;72.50
74560;DHT22;63032;54.340;10.138;2022-08-21T05:19:57;16.80;72.50
74560;DHT22;63032;54.340;10.138;2022-08-21T05:22:23;16.80;72.10
74560;DHT22;63032;54.340;10.138;2022-08-21T05:24:53;16.90;71.80
74560;DHT22;63032;54.340;10.138;2022-08-21T05:27:22;17.00;71.40
74560;DHT22;63032;54.340;10.138;2022-08-21T05:29:48;17.10;70.50
74560;DHT22;63032;54.340;10.138;2022-08-21T05:32:14;17.20;70.20
74560;DHT22;63032;54.340;10.138;2022-08-21T05:34:40;17.20;69.60
74560;DHT22;63032;54.340;10.138;2022-08-21T05:37:10;17.30;69.30
74560;DHT22;63032;54.340;10.138;2022-08-21T05:39:35;17.30;69.00
74560;DHT22;63032;54.340;10.138;2022-08-21T05:42:01;17.40;68.40
74560;DHT22;63032;54.340;10.138;2022-08-21T05:44:30;17.50;68.50
74560;DHT22;63032;54.340;10.138;2022-08-21T05:47:05;17.50;68.20
74560;DHT22;63032;54.340;10.138;2022-08-21T05:49:34;17.50;68.20
74560;DHT22;63032;54.340;10.138;2022-08-21T05:52:01;17.50;68.10
74560;DHT22;63032;54.340;10.138;2022-08-21T05:54:27;17.60;68.00
74560;DHT22;63032;54.340;10.138;2022-08-21T05:56:53;17.70;68.00
74560;DHT22;63032;54.340;10.138;2022-08-21T05:59:18;17.70;67.90
74560;DHT22;63032;54.340;10.138;2022-08-21T06:01:44;17.80;67.60
74560;DHT22;63032;54.340;10.138;2022-08-21T06:04:11;17.90;67.30
74560;DHT22;63032;54.340;10.138;2022-08-21T06:06:37;18.00;67.20
74560;DHT22;63032;54.340;10.138;2022-08-21T06:09:08;18.10;67.10
74560;DHT22;63032;54.340;10.138;2022-08-21T06:11:34;18.20;66.30
74560;DHT22;63032;54.340;10.138;2022-08-21T06:14:00;18.30;66.00
74560;DHT22;63032;54.340;10.138;2022-08-21T06:16:26;18.40;65.50
74560;DHT22;63032;54.340;10.138;2022-08-21T06:18:52;18.40;65.40
74560;DHT22;63032;54.340;10.138;2022-08-21T06:21:18;18.40;65.20
74560;DHT22;63032;54.340;10.138;2022-08-21T06:23:44;18.60;64.50
74560;DHT22;63032;54.340;10.138;2022-08-21T06:26:12;18.60;64.30
74560;DHT22;63032;54.340;10.138;2022-08-21T06:28:39;18.70;63.50
74560;DHT22;63032;54.340;10.138;2022-08-21T06:31:32;18.80;63.60
74560;DHT22;63032;54.340;10.138;2022-08-21T06:33:57;19.00;62.30
74560;DHT22;63032;54.340;10.138;2022-08-21T06:36:23;19.00;62.20
74560;DHT22;63032;54.340;10.138;2022-08-21T06:38:49;19.00;62.30
74560;DHT22;63032;54.340;10.138;2022-08-21T06:41:14;19.10;62.00
74560;DHT22;63032;54.340;10.138;2022-08-21T06:43:43;19.30;61.50
74560;DHT22;63032;54.340;10.138;2022-08-21T06:46:09;19.30;61.40
74560;DHT22;63032;54.340;10.138;2022-08-21T06:48:35;19.50;60.70
74560;DHT22;63032;54.340;10.138;2022-08-21T06:51:00;19.50;61.10
74560;DHT22;63032;54.340;10.138;2022-08-21T06:53:26;19.60;61.20
74560;DHT22;63032;54.340;10.138;2022-08-21T06:55:52;19.80;59.90
74560;DHT22;63032;54.340;10.138;2022-08-21T06:58:18;20.10;58.60
74560;DHT22;63032;54.340;10.138;2022-08-21T07:00:49;20.30;57.90
74560;DHT22;63032;54.340;10.138;2022-08-21T07:03:33;20.50;57.00
74560;DHT22;63032;54.340;10.138;2022-08-21T07:06:00;20.60;56.50
74560;DHT22;63032;54.340;10.138;2022-08-21T07:08:27;20.90;55.90
74560;DHT22;63032;54.340;10.138;2022-08-21T07:10:57;20.80;55.50
74560;DHT22;63032;54.340;10.138;2022-08-21T07:13:24;20.90;55.70
74560;DHT22;63032;54.340;10.138;2022-08-21T07:15:50;21.10;54.80
74560;DHT22;63032;54.340;10.138;2022-08-21T07:18:16;21.20;53.90
74560;DHT22;63032;54.340;10.138;2022-08-21T07:20:42;21.30;53.80
74560;DHT22;63032;54.340;10.138;2022-08-21T07:23:18;21.80;52.40
74560;DHT22;63032;54.340;10.138;2022-08-21T07:25:50;21.80;52.10
74560;DHT22;63032;54.340;10.138;2022-08-21T07:28:19;22.10;51.60
74560;DHT22;63032;54.340;10.138;2022-08-21T07:30:45;22.70;49.90
74560;DHT22;63032;54.340;10.138;2022-08-21T07:33:11;23.00;49.00
74560;DHT22;63032;54.340;10.138;2022-08-21T07:35:37;23.10;48.30
74560;DHT22;63032;54.340;10.138;2022-08-21T07:38:03;23.20;47.50
74560;DHT22;63032;54.340;10.138;2022-08-21T07:40:29;23.10;47.30
74560;DHT22;63032;54.340;10.138;2022-08-21T07:42:55;24.00;46.10
74560;DHT22;63032;54.340;10.138;2022-08-21T07:45:22;24.80;44.90
74560;DHT22;63032;54.340;10.138;2022-08-21T07:47:52;25.50;43.00
74560;DHT22;63032;54.340;10.138;2022-08-21T07:50:18;25.90;42.00
74560;DHT22;63032;54.340;10.138;2022-08-21T07:52:44;26.00;41.30
74560;DHT22;63032;54.340;10.138;2022-08-21T07:55:12;26.80;40.80
74560;DHT22;63032;54.340;10.138;2022-08-21T07:57:38;27.10;39.10
74560;DHT22;63032;54.340;10.138;2022-08-21T08:00:06;27.30;38.40
74560;DHT22;63032;54.340;10.138;2022-08-21T08:02:32;27.20;39.20
74560;DHT22;63032;54.340;10.138;2022-08-21T08:04:59;28.30;37.40
74560;DHT22;63032;54.340;10.138;2022-08-21T08:07:26;29.30;36.30
74560;DHT22;63032;54.340;10.138;2022-08-21T08:09:51;29.20;36.00
74560;DHT22;63032;54.340;10.138;2022-08-21T08:12:17;29.20;36.10
74560;DHT22;63032;54.340;10.138;2022-08-21T08:14:43;28.90;36.60
74560;DHT22;63032;54.340;10.138;2022-08-21T08:17:09;28.70;36.50
74560;DHT22;63032;54.340;10.138;2022-08-21T08:19:35;29.80;36.10
74560;DHT22;63032;54.340;10.138;2022-08-21T08:22:01;30.60;34.60
74560;DHT22;63032;54.340;10.138;2022-08-21T08:24:27;30.10;34.80
74560;DHT22;63032;54.340;10.138;2022-08-21T08:26:52;29.50;36.00
74560;DHT22;63032;54.340;10.138;2022-08-21T08:29:20;30.30;35.70
74560;DHT22;63032;54.340;10.138;2022-08-21T08:31:46;30.10;35.60
74560;DHT22;63032;54.340;10.138;2022-08-21T08:34:12;28.20;37.60
74560;DHT22;63032;54.340;10.138;2022-08-21T08:36:38;28.10;38.60
74560;DHT22;63032;54.340;10.138;2022-08-21T08:39:04;27.70;39.50
74560;DHT22;63032;54.340;10.138;2022-08-21T08:41:31;27.20;40.30
74560;DHT22;63032;54.340;10.138;2022-08-21T08:44:07;27.20;40.60
74560;DHT22;63032;54.340;10.138;2022-08-21T08:46:39;29.10;38.50
74560;DHT22;63032;54.340;10.138;2022-08-21T08:49:19;28.70;38.30
74560;DHT22;63032;54.340;10.138;2022-08-21T08:54:25;28.30;38.70
74560;DHT22;63032;54.340;10.138;2022-08-21T08:56:58;28.60;38.70
74560;DHT22;63032;54.340;10.138;2022-08-21T08:59:31;28.70;39.10
74560;DHT22;63032;54.340;10.138;2022-08-21T09:01:58;28.60;38.60
74560;DHT22;63032;54.340;10.138;2022-08-21T09:04:26;28.90;38.90
74560;DHT22;63032;54.340;10.138;2022-08-21T09:20:47;29.10;38.40
74560;DHT22;63032;54.340;10.138;2022-08-21T09:23:35;29.60;38.00
74560;DHT22;63032;54.340;10.138;2022-08-21T09:28:38;30.80;37.30
74560;DHT22;63032;54.340;10.138;2022-08-21T09:31:40;31.90;35.90
74560;DHT22;63032;54.340;10.138;2022-08-21T09:34:08;32.20;34.60
74560;DHT22;63032;54.340;10.138;2022-08-21T09:36:44;31.30;35.20
74560;DHT22;63032;54.340;10.138;2022-08-21T09:39:12;30.10;36.40
74560;DHT22;63032;54.340;10.138;2022-08-21T09:41:39;30.30;37.20
74560;DHT22;63032;54.340;10.138;2022-08-21T09:44:07;30.80;36.60
74560;DHT22;63032;54.340;10.138;2022-08-21T09:46:33;32.00;35.70
74560;DHT22;63032;54.340;10.138;2022-08-21T09:49:02;32.00;35.40
74560;DHT22;63032;54.340;10.138;2022-08-21T09:51:34;32.50;34.70
74560;DHT22;63032;54.340;10.138;2022-08-21T09:56:38;32.10;34.70
74560;DHT22;63032;54.340;10.138;2022-08-21T09:59:29;31.80;34.80
74560;DHT22;63032;54.340;10.138;2022-08-21T10:01:58;32.10;35.00
74560;DHT22;63032;54.340;10.138;2022-08-21T10:04:35;31.80;34.80
74560;DHT22;63032;54.340;10.138;2022-08-21T10:07:10;31.30;35.20
74560;DHT22;63032;54.340;10.138;2022-08-21T10:09:36;31.40;36.30
74560;DHT22;63032;54.340;10.138;2022-08-21T10:12:19;32.80;34.70
74560;DHT22;63032;54.340;10.138;2022-08-21T10:18:09;32.70;34.00
74560;DHT22;63032;54.340;10.138;2022-08-21T10:29:18;33.30;33.50
74560;DHT22;63032;54.340;10.138;2022-08-21T10:32:05;30.80;35.80
74560;DHT22;63032;54.340;10.138;2022-08-21T10:41:01;31.80;36.20
74560;DHT22;63032;54.340;10.138;2022-08-21T10:45:57;29.80;36.30
74560;DHT22;63032;54.340;10.138;2022-08-21T10:48:46;29.20;37.60
74560;DHT22;63032;54.340;10.138;2022-08-21T10:52:10;29.20;38.70
74560;DHT22;63032;54.340;10.138;2022-08-21T10:54:15;29.30;38.10
74560;DHT22;63032;54.340;10.138;2022-08-21T10:56:41;27.90;40.30
74560;DHT22;63032;54.340;10.138;2022-08-21T11:07:37;31.00;36.30
74560;DHT22;63032;54.340;10.138;2022-08-21T11:10:17;32.50;34.00
74560;DHT22;63032;54.340;10.138;2022-08-21T11:13:35;34.00;32.00
74560;DHT22;63032;54.340;10.138;2022-08-21T11:16:01;34.40;30.60
74560;DHT22;63032;54.340;10.138;2022-08-21T11:18:31;33.90;29.50
74560;DHT22;63032;54.340;10.138;2022-08-21T11:21:06;34.00;29.60
74560;DHT22;63032;54.340;10.138;2022-08-21T11:23:50;34.10;29.80
74560;DHT22;63032;54.340;10.138;2022-08-21T11:26:29;34.10;29.20
74560;DHT22;63032;54.340;10.138;2022-08-21T11:29:02;33.60;28.20
74560;DHT22;63032;54.340;10.138;2022-08-21T11:34:39;33.50;29.40
74560;DHT22;63032;54.340;10.138;2022-08-21T11:40:06;33.80;27.90
74560;DHT22;63032;54.340;10.138;2022-08-21T11:42:59;32.70;29.00
74560;DHT22;63032;54.340;10.138;2022-08-21T11:45:32;33.40;29.20
74560;DHT22;63032;54.340;10.138;2022-08-21T11:50:45;33.40;28.50
74560;DHT22;63032;54.340;10.138;2022-08-21T11:56:01;32.70;27.60
74560;DHT22;63032;54.340;10.138;2022-08-21T11:58:59;33.50;27.80
74560;DHT22;63032;54.340;10.138;2022-08-21T12:01:39;34.00;27.30
74560;DHT22;63032;54.340;10.138;2022-08-21T12:04:26;33.60;27.40
74560;DHT22;63032;54.340;10.138;2022-08-21T12:06:53;31.80;28.80
74560;DHT22;63032;54.340;10.138;2022-08-21T12:12:10;29.50;32.40
74560;DHT22;63032;54.340;10.138;2022-08-21T12:14:48;28.90;33.70
74560;DHT22;63032;54.340;10.138;2022-08-21T12:17:38;28.10;33.60
74560;DHT22;63032;54.340;10.138;2022-08-21T12:20:26;27.80;34.70
74560;DHT22;63032;54.340;10.138;2022-08-21T12:23:01;27.50;34.50
74560;DHT22;63032;54.340;10.138;2022-08-21T12:25:43;27.40;34.70
74560;DHT22;63032;54.340;10.138;2022-08-21T12:28:22;27.20;35.20
74560;DHT22;63032;54.340;10.138;2022-08-21T12:30:49;27.30;35.70
74560;DHT22;63032;54.340;10.138;2022-08-21T12:33:26;27.30;35.80
74560;DHT22;63032;54.340;10.138;2022-08-21T12:36:05;27.20;36.20
74560;DHT22;63032;54.340;10.138;2022-08-21T12:42:00;27.40;37.00
74560;DHT22;63032;54.340;10.138;2022-08-21T12:44:30;27.50;37.10
74560;DHT22;63032;54.340;10.138;2022-08-21T12:47:12;27.50;36.60
74560;DHT22;63032;54.340;10.138;2022-08-21T12:52:32;27.40;36.70
74560;DHT22;63032;54.340;10.138;2022-08-21T12:54:58;27.60;36.60
74560;DHT22;63032;54.340;10.138;2022-08-21T12:57:27;27.70;36.10
74560;DHT22;63032;54.340;10.138;2022-08-21T12:59:58;27.60;36.10
74560;DHT22;63032;54.340;10.138;2022-08-21T13:02:37;27.60;36.10
74560;DHT22;63032;54.340;10.138;2022-08-21T13:05:16;27.70;36.30
74560;DHT22;63032;54.340;10.138;2022-08-21T13:07:46;27.80;36.00
74560;DHT22;63032;54.340;10.138;2022-08-21T13:10:24;27.90;36.10
74560;DHT22;63032;54.340;10.138;2022-08-21T13:12:54;28.00;35.80
74560;DHT22;63032;54.340;10.138;2022-08-21T13:15:30;28.00;35.90
74560;DHT22;63032;54.340;10.138;2022-08-21T13:17:57;28.00;35.70
74560;DHT22;63032;54.340;10.138;2022-08-21T13:20:33;28.00;35.10
74560;DHT22;63032;54.340;10.138;2022-08-21T13:23:01;28.00;35.20
74560;DHT22;63032;54.340;10.138;2022-08-21T13:25:30;28.00;35.10
74560;DHT22;63032;54.340;10.138;2022-08-21T13:28:08;27.80;35.60
74560;DHT22;63032;54.340;10.138;2022-08-21T13:30:39;27.50;35.70
74560;DHT22;63032;54.340;10.138;2022-08-21T13:33:09;27.60;35.00
74560;DHT22;63032;54.340;10.138;2022-08-21T13:38:35;27.70;35.60
74560;DHT22;63032;54.340;10.138;2022-08-21T13:41:19;27.60;35.50
74560;DHT22;63032;54.340;10.138;2022-08-21T13:43:55;27.40;35.60
74560;DHT22;63032;54.340;10.138;2022-08-21T13:46:24;27.20;36.30
74560;DHT22;63032;54.340;10.138;2022-08-21T13:48:51;26.90;37.20
74560;DHT22;63032;54.340;10.138;2022-08-21T13:51:18;26.80;38.00
74560;DHT22;63032;54.340;10.138;2022-08-21T13:53:48;26.90;38.00
74560;DHT22;63032;54.340;10.138;2022-08-21T13:56:29;27.20;38.10
74560;DHT22;63032;54.340;10.138;2022-08-21T13:58:57;27.50;37.80
74560;DHT22;63032;54.340;10.138;2022-08-21T14:01:31;27.70;38.00
74560;DHT22;63032;54.340;10.138;2022-08-21T14:04:06;27.80;37.80
74560;DHT22;63032;54.340;10.138;2022-08-21T14:06:37;28.00;37.20
74560;DHT22;63032;54.340;10.138;2022-08-21T14:11:52;28.30;37.40
74560;DHT22;63032;54.340;10.138;2022-08-21T14:14:31;28.30;37.60
74560;DHT22;63032;54.340;10.138;2022-08-21T14:17:06;28.30;38.00
74560;DHT22;63032;54.340;10.138;2022-08-21T14:19:39;28.40;37.50
74560;DHT22;63032;54.340;10.138;2022-08-21T14:22:45;28.20;38.20
74560;DHT22;63032;54.340;10.138;2022-08-21T14:25:15;28.50;37.70
74560;DHT22;63032;54.340;10.138;2022-08-21T14:30:40;28.80;37.00
74560;DHT22;63032;54.340;10.138;2022-08-21T14:33:12;28.30;37.80
74560;DHT22;63032;54.340;10.138;2022-08-21T14:35:38;28.00;38.60
74560;DHT22;63032;54.340;10.138;2022-08-21T14:38:18;28.20;38.50
74560;DHT22;63032;54.340;10.138;2022-08-21T14:40:50;27.80;39.00
74560;DHT22;63032;54.340;10.138;2022-08-21T14:43:20;27.30;39.90
74560;DHT22;63032;54.340;10.138;2022-08-21T14:45:46;27.30;40.20
74560;DHT22;63032;54.340;10.138;2022-08-21T14:48:12;27.00;40.30
74560;DHT22;63032;54.340;10.138;2022-08-21T14:50:38;26.70;41.00
74560;DHT22;63032;54.340;10.138;2022-08-21T14:53:04;26.40;41.30
74560;DHT22;63032;54.340;10.138;2022-08-21T14:55:31;26.30;41.90
74560;DHT22;63032;54.340;10.138;2022-08-21T14:58:20;26.30;42.50
74560;DHT22;63032;54.340;10.138;2022-08-21T15:00:49;26.20;42.90
74560;DHT22;63032;54.340;10.138;2022-08-21T15:03:15;26.00;43.30
74560;DHT22;63032;54.340;10.138;2022-08-21T15:05:41;25.90;43.70
74560;DHT22;63032;54.340;10.138;2022-08-21T15:08:06;25.70;44.30
74560;DHT22;63032;54.340;10.138;2022-08-21T15:10:33;25.60;44.80
74560;DHT22;63032;54.340;10.138;2022-08-21T15:12:59;25.50;45.40
74560;DHT22;63032;54.340;10.138;2022-08-21T15:15:25;25.50;46.00
74560;DHT22;63032;54.340;10.138;2022-08-21T15:17:51;25.90;45.30
74560;DHT22;63032;54.340;10.138;2022-08-21T15:20:17;26.40;44.20
74560;DHT22;63032;54.340;10.138;2022-08-21T15:22:43;26.90;43.10
74560;DHT22;63032;54.340;10.138;2022-08-21T15:25:08;27.00;43.00
74560;DHT22;63032;54.340;10.138;2022-08-21T15:27:35;27.10;42.80
74560;DHT22;63032;54.340;10.138;2022-08-21T15:30:02;27.20;42.60
74560;DHT22;63032;54.340;10.138;2022-08-21T15:32:28;27.20;42.40
74560;DHT22;63032;54.340;10.138;2022-08-21T15:34:56;26.90;42.70
74560;DHT22;63032;54.340;10.138;2022-08-21T15:37:23;26.70;43.00
74560;DHT22;63032;54.340;10.138;2022-08-21T15:39:50;26.40;43.60
74560;DHT22;63032;54.340;10.138;2022-08-21T15:42:17;26.30;43.90
74560;DHT22;63032;54.340;10.138;2022-08-21T15:44:44;26.10;44.40
74560;DHT22;63032;54.340;10.138;2022-08-21T15:47:15;26.10;45.20
74560;DHT22;63032;54.340;10.138;2022-08-21T15:49:42;26.00;45.50
74560;DHT22;63032;54.340;10.138;2022-08-21T15:52:12;26.00;45.40
74560;DHT22;63032;54.340;10.138;2022-08-21T15:54:38;25.90;45.90
74560;DHT22;63032;54.340;10.138;2022-08-21T15:57:04;25.70;46.10
74560;DHT22;63032;54.340;10.138;2022-08-21T15:59:37;25.60;46.50
74560;DHT22;63032;54.340;10.138;2022-08-21T16:02:05;25.50;46.90
74560;DHT22;63032;54.340;10.138;2022-08-21T16:04:32;25.40;48.00
74560;DHT22;63032;54.340;10.138;2022-08-21T16:06:58;25.30;47.70
74560;DHT22;63032;54.340;10.138;2022-08-21T16:09:23;25.30;48.00
74560;DHT22;63032;54.340;10.138;2022-08-21T16:11:49;25.10;48.60
74560;DHT22;63032;54.340;10.138;2022-08-21T16:14:15;25.00;48.80
74560;DHT22;63032;54.340;10.138;2022-08-21T16:16:42;25.00;49.20
74560;DHT22;63032;54.340;10.138;2022-08-21T16:19:10;24.90;49.70
74560;DHT22;63032;54.340;10.138;2022-08-21T16:21:36;24.80;49.80
74560;DHT22;63032;54.340;10.138;2022-08-21T16:24:02;24.80;50.80
74560;DHT22;63032;54.340;10.138;2022-08-21T16:26:28;24.80;50.90
74560;DHT22;63032;54.340;10.138;2022-08-21T16:28:58;24.80;50.90
74560;DHT22;63032;54.340;10.138;2022-08-21T16:31:25;24.80;51.10
74560;DHT22;63032;54.340;10.138;2022-08-21T16:33:54;24.80;51.10
74560;DHT22;63032;54.340;10.138;2022-08-21T16:36:20;24.70;51.00
74560;DHT22;63032;54.340;10.138;2022-08-21T16:38:46;24.70;50.70
74560;DHT22;63032;54.340;10.138;2022-08-21T16:41:16;24.70;50.70
74560;DHT22;63032;54.340;10.138;2022-08-21T16:43:43;24.70;50.90
74560;DHT22;63032;54.340;10.138;2022-08-21T16:46:12;24.60;50.60
74560;DHT22;63032;54.340;10.138;2022-08-21T16:48:39;24.60;50.40
74560;DHT22;63032;54.340;10.138;2022-08-21T16:51:06;24.60;50.50